Aviation Digital Data Service (ADDS)

Output produced by METARs form (1941 UTC 25 March 2017)
found at http://www.aviationweather.gov/adds/metars/
 
EGYP 251850Z 28010KT 9999 FEW018 OVC080 14/09 Q1017 BLU NOSIG
TAF EGYP 251615Z 2518/2612 30010KT 9999 FEW020 
     BECMG 2523/2602 11010KT BKN010 
     TEMPO 2600/2612 4000 RADZ BKN004 
     PROB30 
     TEMPO 2602/2611 0600 FG OVC000